sensor_id;sensor_type;location;lat;lon;timestamp;temperature;humidity
12060;DHT22;6091;51.432;6.880;2023-02-23T00:02:06;22.40;36.20
12060;DHT22;6091;51.432;6.880;2023-02-23T00:04:34;22.40;36.20
12060;DHT22;6091;51.432;6.880;2023-02-23T00:07:02;22.40;36.20
12060;DHT22;6091;51.432;6.880;2023-02-23T00:09:29;22.40;36.20
12060;DHT22;6091;51.432;6.880;2023-02-23T00:12:03;22.40;36.20
12060;DHT22;6091;51.432;6.880;2023-02-23T00:14:34;22.40;36.30
12060;DHT22;6091;51.432;6.880;2023-02-23T00:17:04;22.30;36.10
12060;DHT22;6091;51.432;6.880;2023-02-23T00:19:39;22.50;36.30
12060;DHT22;6091;51.432;6.880;2023-02-23T00:22:09;22.50;36.40
12060;DHT22;6091;51.432;6.880;2023-02-23T00:24:38;22.30;36.10
12060;DHT22;6091;51.432;6.880;2023-02-23T00:27:08;22.40;36.30
12060;DHT22;6091;51.432;6.880;2023-02-23T00:32:06;22.50;36.40
12060;DHT22;6091;51.432;6.880;2023-02-23T00:34:33;22.30;36.20
12060;DHT22;6091;51.432;6.880;2023-02-23T00:37:02;22.40;36.30
12060;DHT22;6091;51.432;6.880;2023-02-23T00:39:29;22.40;36.30
12060;DHT22;6091;51.432;6.880;2023-02-23T00:46:56;22.40;36.30
12060;DHT22;6091;51.432;6.880;2023-02-23T00:49:23;22.30;36.30
12060;DHT22;6091;51.432;6.880;2023-02-23T00:51:51;22.40;36.30
12060;DHT22;6091;51.432;6.880;2023-02-23T00:54:19;22.20;36.20
12060;DHT22;6091;51.432;6.880;2023-02-23T00:56:47;22.40;36.90
12060;DHT22;6091;51.432;6.880;2023-02-23T00:59:15;22.30;36.30
12060;DHT22;6091;51.432;6.880;2023-02-23T01:01:42;22.30;36.30
12060;DHT22;6091;51.432;6.880;2023-02-23T01:04:11;22.30;36.30
12060;DHT22;6091;51.432;6.880;2023-02-23T01:06:39;22.40;36.40
12060;DHT22;6091;51.432;6.880;2023-02-23T01:09:09;22.30;36.40
12060;DHT22;6091;51.432;6.880;2023-02-23T01:11:39;22.40;36.50
12060;DHT22;6091;51.432;6.880;2023-02-23T01:14:12;22.40;36.80
12060;DHT22;6091;51.432;6.880;2023-02-23T01:16:39;22.30;36.40
12060;DHT22;6091;51.432;6.880;2023-02-23T01:21:37;22.30;36.40
12060;DHT22;6091;51.432;6.880;2023-02-23T01:24:08;22.30;36.40
12060;DHT22;6091;51.432;6.880;2023-02-23T01:26:38;22.40;36.30
12060;DHT22;6091;51.432;6.880;2023-02-23T01:29:14;22.30;36.40
12060;DHT22;6091;51.432;6.880;2023-02-23T01:31:47;22.30;36.90
12060;DHT22;6091;51.432;6.880;2023-02-23T01:34:18;22.30;36.90
12060;DHT22;6091;51.432;6.880;2023-02-23T01:36:47;22.30;36.40
12060;DHT22;6091;51.432;6.880;2023-02-23T01:39:16;22.30;36.40
12060;DHT22;6091;51.432;6.880;2023-02-23T01:41:45;22.30;36.40
12060;DHT22;6091;51.432;6.880;2023-02-23T01:46:42;22.30;36.40
12060;DHT22;6091;51.432;6.880;2023-02-23T01:49:15;22.30;36.90
12060;DHT22;6091;51.432;6.880;2023-02-23T01:51:49;22.30;36.90
12060;DHT22;6091;51.432;6.880;2023-02-23T01:54:29;22.30;36.50
12060;DHT22;6091;51.432;6.880;2023-02-23T01:57:00;22.30;36.50
12060;DHT22;6091;51.432;6.880;2023-02-23T01:59:35;22.20;36.40
12060;DHT22;6091;51.432;6.880;2023-02-23T02:02:05;22.30;36.40
12060;DHT22;6091;51.432;6.880;2023-02-23T02:04:37;22.30;37.00
12060;DHT22;6091;51.432;6.880;2023-02-23T02:07:15;22.30;37.00
12060;DHT22;6091;51.432;6.880;2023-02-23T02:09:46;22.30;37.00
12060;DHT22;6091;51.432;6.880;2023-02-23T02:12:33;22.30;37.00
12060;DHT22;6091;51.432;6.880;2023-02-23T02:15:00;22.30;37.00
12060;DHT22;6091;51.432;6.880;2023-02-23T02:17:43;22.30;37.00
12060;DHT22;6091;51.432;6.880;2023-02-23T02:29:58;22.30;37.10
12060;DHT22;6091;51.432;6.880;2023-02-23T02:39:26;22.30;37.00
12060;DHT22;6091;51.432;6.880;2023-02-23T02:45:05;22.30;36.50
12060;DHT22;6091;51.432;6.880;2023-02-23T02:50:50;22.20;37.00
12060;DHT22;6091;51.432;6.880;2023-02-23T02:53:35;22.30;37.10
12060;DHT22;6091;51.432;6.880;2023-02-23T02:56:11;22.20;37.00
12060;DHT22;6091;51.432;6.880;2023-02-23T02:58:46;22.20;37.00
12060;DHT22;6091;51.432;6.880;2023-02-23T03:01:17;22.20;37.00
12060;DHT22;6091;51.432;6.880;2023-02-23T03:04:23;22.20;37.00
12060;DHT22;6091;51.432;6.880;2023-02-23T03:08:27;22.30;36.50
12060;DHT22;6091;51.432;6.880;2023-02-23T03:11:10;22.20;37.10
12060;DHT22;6091;51.432;6.880;2023-02-23T03:14:34;22.30;37.10
12060;DHT22;6091;51.432;6.880;2023-02-23T03:17:45;22.20;37.10
12060;DHT22;6091;51.432;6.880;2023-02-23T03:27:01;22.20;37.10
12060;DHT22;6091;51.432;6.880;2023-02-23T03:30:17;22.20;37.10
12060;DHT22;6091;51.432;6.880;2023-02-23T03:33:15;22.20;37.10
12060;DHT22;6091;51.432;6.880;2023-02-23T03:36:20;22.10;37.10
12060;DHT22;6091;51.432;6.880;2023-02-23T03:42:20;22.10;37.10
12060;DHT22;6091;51.432;6.880;2023-02-23T03:45:15;22.10;37.10
12060;DHT22;6091;51.432;6.880;2023-02-23T03:48:06;22.10;36.60
12060;DHT22;6091;51.432;6.880;2023-02-23T03:51:00;22.20;36.60
12060;DHT22;6091;51.432;6.880;2023-02-23T03:54:02;22.10;37.10
12060;DHT22;6091;51.432;6.880;2023-02-23T03:57:03;22.10;37.20
12060;DHT22;6091;51.432;6.880;2023-02-23T03:59:56;22.10;37.10
12060;DHT22;6091;51.432;6.880;2023-02-23T04:02:46;22.10;37.10
12060;DHT22;6091;51.432;6.880;2023-02-23T04:05:38;22.10;37.20
12060;DHT22;6091;51.432;6.880;2023-02-23T04:08:32;22.10;37.20
12060;DHT22;6091;51.432;6.880;2023-02-23T04:11:36;22.10;37.20
12060;DHT22;6091;51.432;6.880;2023-02-23T04:14:37;22.10;37.20
12060;DHT22;6091;51.432;6.880;2023-02-23T04:17:10;22.10;37.20
12060;DHT22;6091;51.432;6.880;2023-02-23T04:19:38;22.10;37.20
12060;DHT22;6091;51.432;6.880;2023-02-23T04:22:04;22.00;37.20
12060;DHT22;6091;51.432;6.880;2023-02-23T04:24:31;22.10;37.20
12060;DHT22;6091;51.432;6.880;2023-02-23T04:26:58;22.00;37.20
12060;DHT22;6091;51.432;6.880;2023-02-23T04:29:26;22.10;36.70
12060;DHT22;6091;51.432;6.880;2023-02-23T04:31:54;22.00;37.20
12060;DHT22;6091;51.432;6.880;2023-02-23T04:34:21;22.10;37.20
12060;DHT22;6091;51.432;6.880;2023-02-23T04:36:48;22.10;37.30
12060;DHT22;6091;51.432;6.880;2023-02-23T04:39:16;22.10;37.30
12060;DHT22;6091;51.432;6.880;2023-02-23T04:41:43;22.00;37.20
12060;DHT22;6091;51.432;6.880;2023-02-23T04:44:11;22.00;37.20
12060;DHT22;6091;51.432;6.880;2023-02-23T04:46:38;22.00;37.20
12060;DHT22;6091;51.432;6.880;2023-02-23T04:49:05;22.00;36.70
12060;DHT22;6091;51.432;6.880;2023-02-23T04:51:32;22.00;37.20
12060;DHT22;6091;51.432;6.880;2023-02-23T04:53:59;22.10;37.30
12060;DHT22;6091;51.432;6.880;2023-02-23T04:56:26;22.00;37.20
12060;DHT22;6091;51.432;6.880;2023-02-23T04:58:54;22.10;37.30
12060;DHT22;6091;51.432;6.880;2023-02-23T05:01:21;22.10;37.30
12060;DHT22;6091;51.432;6.880;2023-02-23T05:03:49;22.10;37.30
12060;DHT22;6091;51.432;6.880;2023-02-23T05:06:17;22.00;37.20
12060;DHT22;6091;51.432;6.880;2023-02-23T05:08:44;22.00;37.30
12060;DHT22;6091;51.432;6.880;2023-02-23T05:11:11;22.00;37.30
12060;DHT22;6091;51.432;6.880;2023-02-23T05:13:38;22.00;37.20
12060;DHT22;6091;51.432;6.880;2023-02-23T05:16:06;22.00;37.20
12060;DHT22;6091;51.432;6.880;2023-02-23T05:18:33;22.00;37.30
12060;DHT22;6091;51.432;6.880;2023-02-23T05:21:06;22.00;37.30
12060;DHT22;6091;51.432;6.880;2023-02-23T05:23:35;22.00;37.30
12060;DHT22;6091;51.432;6.880;2023-02-23T05:26:07;22.00;37.30
12060;DHT22;6091;51.432;6.880;2023-02-23T05:28:38;22.10;37.40
12060;DHT22;6091;51.432;6.880;2023-02-23T05:31:07;22.00;36.70
12060;DHT22;6091;51.432;6.880;2023-02-23T05:33:36;22.00;37.30
12060;DHT22;6091;51.432;6.880;2023-02-23T05:36:13;22.10;37.40
12060;DHT22;6091;51.432;6.880;2023-02-23T05:38:44;22.00;37.30
12060;DHT22;6091;51.432;6.880;2023-02-23T05:41:14;22.00;37.30
12060;DHT22;6091;51.432;6.880;2023-02-23T05:43:44;22.00;37.30
12060;DHT22;6091;51.432;6.880;2023-02-23T05:46:16;22.00;37.30
12060;DHT22;6091;51.432;6.880;2023-02-23T05:48:46;22.00;36.70
12060;DHT22;6091;51.432;6.880;2023-02-23T05:51:14;22.00;37.30
12060;DHT22;6091;51.432;6.880;2023-02-23T05:53:43;22.00;37.30
12060;DHT22;6091;51.432;6.880;2023-02-23T05:56:15;22.00;37.30
12060;DHT22;6091;51.432;6.880;2023-02-23T05:58:47;22.00;37.30
12060;DHT22;6091;51.432;6.880;2023-02-23T06:01:16;22.00;37.30
12060;DHT22;6091;51.432;6.880;2023-02-23T06:03:44;22.00;37.30
12060;DHT22;6091;51.432;6.880;2023-02-23T06:06:12;22.00;37.40
12060;DHT22;6091;51.432;6.880;2023-02-23T06:08:40;22.00;37.30
12060;DHT22;6091;51.432;6.880;2023-02-23T06:11:08;22.00;37.40
12060;DHT22;6091;51.432;6.880;2023-02-23T06:13:35;22.00;36.80
12060;DHT22;6091;51.432;6.880;2023-02-23T06:18:30;21.90;36.80
12060;DHT22;6091;51.432;6.880;2023-02-23T06:20:59;21.90;37.30
12060;DHT22;6091;51.432;6.880;2023-02-23T06:23:27;22.00;37.40
12060;DHT22;6091;51.432;6.880;2023-02-23T06:25:55;22.00;37.40
12060;DHT22;6091;51.432;6.880;2023-02-23T06:28:22;22.00;37.40
12060;DHT22;6091;51.432;6.880;2023-02-23T06:30:53;21.90;37.30
12060;DHT22;6091;51.432;6.880;2023-02-23T06:33:22;22.00;37.40
12060;DHT22;6091;51.432;6.880;2023-02-23T06:35:49;21.90;36.80
12060;DHT22;6091;51.432;6.880;2023-02-23T06:38:17;22.00;36.90
12060;DHT22;6091;51.432;6.880;2023-02-23T06:40:44;22.00;37.60
12060;DHT22;6091;51.432;6.880;2023-02-23T06:43:11;22.00;37.20
12060;DHT22;6091;51.432;6.880;2023-02-23T06:45:38;21.90;37.70
12060;DHT22;6091;51.432;6.880;2023-02-23T06:48:06;22.10;37.50
12060;DHT22;6091;51.432;6.880;2023-02-23T06:53:02;22.30;37.70
12060;DHT22;6091;51.432;6.880;2023-02-23T06:55:29;22.30;38.30
12060;DHT22;6091;51.432;6.880;2023-02-23T06:57:56;22.50;37.80
12060;DHT22;6091;51.432;6.880;2023-02-23T07:00:23;22.50;38.40
12060;DHT22;6091;51.432;6.880;2023-02-23T07:02:50;22.60;38.40
12060;DHT22;6091;51.432;6.880;2023-02-23T07:05:17;22.90;37.90
12060;DHT22;6091;51.432;6.880;2023-02-23T07:07:45;22.90;38.50
12060;DHT22;6091;51.432;6.880;2023-02-23T07:10:12;23.00;38.50
12060;DHT22;6091;51.432;6.880;2023-02-23T07:12:39;23.10;38.50
12060;DHT22;6091;51.432;6.880;2023-02-23T07:15:06;23.20;38.50
12060;DHT22;6091;51.432;6.880;2023-02-23T07:17:34;23.40;38.70
12060;DHT22;6091;51.432;6.880;2023-02-23T07:20:01;23.40;38.70
12060;DHT22;6091;51.432;6.880;2023-02-23T07:22:28;23.50;38.80
12060;DHT22;6091;51.432;6.880;2023-02-23T07:24:56;23.70;38.80
12060;DHT22;6091;51.432;6.880;2023-02-23T07:27:24;23.80;38.70
12060;DHT22;6091;51.432;6.880;2023-02-23T07:29:51;24.00;38.70
12060;DHT22;6091;51.432;6.880;2023-02-23T07:32:18;24.00;38.60
12060;DHT22;6091;51.432;6.880;2023-02-23T07:34:45;24.10;38.50
12060;DHT22;6091;51.432;6.880;2023-02-23T07:37:13;24.20;38.50
12060;DHT22;6091;51.432;6.880;2023-02-23T07:39:40;24.30;38.40
12060;DHT22;6091;51.432;6.880;2023-02-23T07:42:07;24.40;38.50
12060;DHT22;6091;51.432;6.880;2023-02-23T07:44:34;24.50;38.40
12060;DHT22;6091;51.432;6.880;2023-02-23T07:47:02;24.60;38.40
12060;DHT22;6091;51.432;6.880;2023-02-23T07:49:29;24.70;38.50
12060;DHT22;6091;51.432;6.880;2023-02-23T07:51:56;24.70;38.40
12060;DHT22;6091;51.432;6.880;2023-02-23T07:54:24;24.80;38.40
12060;DHT22;6091;51.432;6.880;2023-02-23T07:56:52;24.90;38.30
12060;DHT22;6091;51.432;6.880;2023-02-23T07:59:19;24.90;38.20
12060;DHT22;6091;51.432;6.880;2023-02-23T08:01:46;25.00;38.10
12060;DHT22;6091;51.432;6.880;2023-02-23T08:04:13;25.00;38.10
12060;DHT22;6091;51.432;6.880;2023-02-23T08:06:40;25.10;38.10
12060;DHT22;6091;51.432;6.880;2023-02-23T08:09:07;25.10;38.00
12060;DHT22;6091;51.432;6.880;2023-02-23T08:11:36;25.20;38.00
12060;DHT22;6091;51.432;6.880;2023-02-23T08:14:04;25.20;37.80
12060;DHT22;6091;51.432;6.880;2023-02-23T08:16:32;25.20;37.80
12060;DHT22;6091;51.432;6.880;2023-02-23T08:18:59;25.30;37.70
12060;DHT22;6091;51.432;6.880;2023-02-23T08:21:27;25.30;37.70
12060;DHT22;6091;51.432;6.880;2023-02-23T08:23:56;25.30;37.60
12060;DHT22;6091;51.432;6.880;2023-02-23T08:26:24;25.30;37.50
12060;DHT22;6091;51.432;6.880;2023-02-23T08:28:53;25.40;37.60
12060;DHT22;6091;51.432;6.880;2023-02-23T08:31:21;25.40;37.50
12060;DHT22;6091;51.432;6.880;2023-02-23T08:33:50;25.40;37.40
12060;DHT22;6091;51.432;6.880;2023-02-23T08:36:18;25.40;37.40
12060;DHT22;6091;51.432;6.880;2023-02-23T08:38:47;25.40;37.30
12060;DHT22;6091;51.432;6.880;2023-02-23T08:41:14;25.40;37.30
12060;DHT22;6091;51.432;6.880;2023-02-23T08:43:45;25.40;37.30
12060;DHT22;6091;51.432;6.880;2023-02-23T08:46:12;25.40;37.20
12060;DHT22;6091;51.432;6.880;2023-02-23T08:48:39;25.40;37.80
12060;DHT22;6091;51.432;6.880;2023-02-23T08:51:07;25.40;37.20
12060;DHT22;6091;51.432;6.880;2023-02-23T08:53:34;25.50;37.20
12060;DHT22;6091;51.432;6.880;2023-02-23T08:56:03;25.50;37.20
12060;DHT22;6091;51.432;6.880;2023-02-23T08:58:33;25.50;37.10
12060;DHT22;6091;51.432;6.880;2023-02-23T09:01:01;25.50;37.10
12060;DHT22;6091;51.432;6.880;2023-02-23T09:03:31;25.50;37.10
12060;DHT22;6091;51.432;6.880;2023-02-23T09:06:06;25.60;37.20
12060;DHT22;6091;51.432;6.880;2023-02-23T09:08:35;25.60;37.10
12060;DHT22;6091;51.432;6.880;2023-02-23T09:11:04;25.60;37.20
12060;DHT22;6091;51.432;6.880;2023-02-23T09:13:31;25.50;37.10
12060;DHT22;6091;51.432;6.880;2023-02-23T09:15:59;25.50;37.10
12060;DHT22;6091;51.432;6.880;2023-02-23T09:18:26;25.50;37.30
12060;DHT22;6091;51.432;6.880;2023-02-23T09:20:55;25.50;37.30
12060;DHT22;6091;51.432;6.880;2023-02-23T09:23:22;25.60;37.30
12060;DHT22;6091;51.432;6.880;2023-02-23T09:25:53;25.60;37.30
12060;DHT22;6091;51.432;6.880;2023-02-23T09:28:20;25.60;37.20
12060;DHT22;6091;51.432;6.880;2023-02-23T09:30:47;25.60;37.20
12060;DHT22;6091;51.432;6.880;2023-02-23T09:33:14;25.60;37.10
12060;DHT22;6091;51.432;6.880;2023-02-23T09:35:42;25.70;37.70
12060;DHT22;6091;51.432;6.880;2023-02-23T09:38:09;25.70;37.00
12060;DHT22;6091;51.432;6.880;2023-02-23T09:40:48;25.70;37.00
12060;DHT22;6091;51.432;6.880;2023-02-23T09:43:43;25.70;36.80
12060;DHT22;6091;51.432;6.880;2023-02-23T09:46:31;25.70;36.80
12060;DHT22;6091;51.432;6.880;2023-02-23T09:49:16;25.70;36.90
12060;DHT22;6091;51.432;6.880;2023-02-23T09:51:52;25.70;36.80
12060;DHT22;6091;51.432;6.880;2023-02-23T09:54:27;25.70;36.80
12060;DHT22;6091;51.432;6.880;2023-02-23T09:57:04;25.70;36.80
12060;DHT22;6091;51.432;6.880;2023-02-23T09:59:40;25.70;36.90
12060;DHT22;6091;51.432;6.880;2023-02-23T10:02:14;25.70;36.90
12060;DHT22;6091;51.432;6.880;2023-02-23T10:05:00;25.70;36.90
12060;DHT22;6091;51.432;6.880;2023-02-23T10:07:52;25.70;36.90
12060;DHT22;6091;51.432;6.880;2023-02-23T10:13:14;25.70;37.60
12060;DHT22;6091;51.432;6.880;2023-02-23T10:16:10;25.70;37.00
12060;DHT22;6091;51.432;6.880;2023-02-23T10:18:55;25.80;37.00
12060;DHT22;6091;51.432;6.880;2023-02-23T10:21:33;25.80;37.10
12060;DHT22;6091;51.432;6.880;2023-02-23T10:27:07;25.80;37.10
12060;DHT22;6091;51.432;6.880;2023-02-23T10:29:56;25.80;37.10
12060;DHT22;6091;51.432;6.880;2023-02-23T10:32:40;25.80;37.10
12060;DHT22;6091;51.432;6.880;2023-02-23T10:35:39;25.80;37.10
12060;DHT22;6091;51.432;6.880;2023-02-23T10:38:15;25.90;37.20
12060;DHT22;6091;51.432;6.880;2023-02-23T10:40:48;25.80;37.10
12060;DHT22;6091;51.432;6.880;2023-02-23T10:43:19;25.80;37.00
12060;DHT22;6091;51.432;6.880;2023-02-23T10:45:51;25.90;37.20
12060;DHT22;6091;51.432;6.880;2023-02-23T10:48:24;25.90;37.20
12060;DHT22;6091;51.432;6.880;2023-02-23T10:50:57;25.90;37.10
12060;DHT22;6091;51.432;6.880;2023-02-23T10:53:34;25.90;37.10
12060;DHT22;6091;51.432;6.880;2023-02-23T10:58:53;25.90;36.50
12060;DHT22;6091;51.432;6.880;2023-02-23T11:01:40;25.90;35.80
12060;DHT22;6091;51.432;6.880;2023-02-23T11:04:32;25.90;36.00
12060;DHT22;6091;51.432;6.880;2023-02-23T11:07:20;25.80;35.90
12060;DHT22;6091;51.432;6.880;2023-02-23T11:09:51;25.80;35.60
12060;DHT22;6091;51.432;6.880;2023-02-23T11:12:39;25.70;35.90
12060;DHT22;6091;51.432;6.880;2023-02-23T11:15:29;25.60;35.60
12060;DHT22;6091;51.432;6.880;2023-02-23T11:18:22;25.60;35.60
12060;DHT22;6091;51.432;6.880;2023-02-23T11:20:52;25.50;35.60
12060;DHT22;6091;51.432;6.880;2023-02-23T11:23:27;25.40;35.70
12060;DHT22;6091;51.432;6.880;2023-02-23T11:26:03;25.30;35.70
12060;DHT22;6091;51.432;6.880;2023-02-23T11:28:41;25.30;35.70
12060;DHT22;6091;51.432;6.880;2023-02-23T11:31:16;25.20;35.60
12060;DHT22;6091;51.432;6.880;2023-02-23T11:33:47;25.20;35.50
12060;DHT22;6091;51.432;6.880;2023-02-23T11:39:01;25.10;35.40
12060;DHT22;6091;51.432;6.880;2023-02-23T11:41:41;25.10;35.40
12060;DHT22;6091;51.432;6.880;2023-02-23T11:44:19;25.00;35.70
12060;DHT22;6091;51.432;6.880;2023-02-23T11:46:49;25.00;36.00
12060;DHT22;6091;51.432;6.880;2023-02-23T11:49:23;25.00;36.40
12060;DHT22;6091;51.432;6.880;2023-02-23T11:51:55;25.00;36.40
12060;DHT22;6091;51.432;6.880;2023-02-23T11:54:31;25.00;36.00
12060;DHT22;6091;51.432;6.880;2023-02-23T11:57:00;25.00;35.80
12060;DHT22;6091;51.432;6.880;2023-02-23T11:59:32;25.00;35.90
12060;DHT22;6091;51.432;6.880;2023-02-23T12:02:24;25.10;36.10
12060;DHT22;6091;51.432;6.880;2023-02-23T12:05:17;25.20;36.10
12060;DHT22;6091;51.432;6.880;2023-02-23T12:08:14;25.20;36.20
12060;DHT22;6091;51.432;6.880;2023-02-23T12:10:54;25.30;36.30
12060;DHT22;6091;51.432;6.880;2023-02-23T12:13:49;25.30;36.30
12060;DHT22;6091;51.432;6.880;2023-02-23T12:16:34;25.40;36.90
12060;DHT22;6091;51.432;6.880;2023-02-23T12:22:19;25.50;36.30
12060;DHT22;6091;51.432;6.880;2023-02-23T12:25:02;25.60;36.30
12060;DHT22;6091;51.432;6.880;2023-02-23T12:27:44;25.60;36.30
12060;DHT22;6091;51.432;6.880;2023-02-23T12:30:43;25.60;36.30
12060;DHT22;6091;51.432;6.880;2023-02-23T12:33:33;25.70;36.20
12060;DHT22;6091;51.432;6.880;2023-02-23T12:42:16;25.80;36.30
12060;DHT22;6091;51.432;6.880;2023-02-23T12:44:53;25.80;36.30
12060;DHT22;6091;51.432;6.880;2023-02-23T12:47:33;25.80;36.20
12060;DHT22;6091;51.432;6.880;2023-02-23T12:50:10;25.80;36.30
12060;DHT22;6091;51.432;6.880;2023-02-23T12:52:50;25.80;36.30
12060;DHT22;6091;51.432;6.880;2023-02-23T12:56:10;25.80;36.30
12060;DHT22;6091;51.432;6.880;2023-02-23T13:01:58;25.90;36.40
12060;DHT22;6091;51.432;6.880;2023-02-23T13:04:49;25.80;36.60
12060;DHT22;6091;51.432;6.880;2023-02-23T13:07:47;25.80;36.60
12060;DHT22;6091;51.432;6.880;2023-02-23T13:10:54;25.80;36.50
12060;DHT22;6091;51.432;6.880;2023-02-23T13:14:00;25.80;36.20
12060;DHT22;6091;51.432;6.880;2023-02-23T13:16:49;25.90;36.10
12060;DHT22;6091;51.432;6.880;2023-02-23T13:19:27;25.80;35.90
12060;DHT22;6091;51.432;6.880;2023-02-23T13:28:48;25.80;35.80
12060;DHT22;6091;51.432;6.880;2023-02-23T13:31:35;25.80;35.80
12060;DHT22;6091;51.432;6.880;2023-02-23T13:34:24;25.80;35.80
12060;DHT22;6091;51.432;6.880;2023-02-23T13:37:06;25.80;35.70
12060;DHT22;6091;51.432;6.880;2023-02-23T13:39:58;25.70;35.70
12060;DHT22;6091;51.432;6.880;2023-02-23T13:45:47;25.70;35.80
12060;DHT22;6091;51.432;6.880;2023-02-23T13:51:43;25.70;36.10
12060;DHT22;6091;51.432;6.880;2023-02-23T13:56:53;25.70;36.30
12060;DHT22;6091;51.432;6.880;2023-02-23T13:59:44;25.70;36.20
12060;DHT22;6091;51.432;6.880;2023-02-23T14:02:45;25.70;36.30
12060;DHT22;6091;51.432;6.880;2023-02-23T14:05:27;25.80;36.40
12060;DHT22;6091;51.432;6.880;2023-02-23T14:08:03;25.80;36.40
12060;DHT22;6091;51.432;6.880;2023-02-23T14:10:39;25.80;36.50
12060;DHT22;6091;51.432;6.880;2023-02-23T14:25:51;26.00;36.40
12060;DHT22;6091;51.432;6.880;2023-02-23T14:28:32;26.10;36.40
12060;DHT22;6091;51.432;6.880;2023-02-23T14:31:17;26.10;36.30
12060;DHT22;6091;51.432;6.880;2023-02-23T14:33:57;26.10;36.20
12060;DHT22;6091;51.432;6.880;2023-02-23T14:41:37;26.00;36.30
12060;DHT22;6091;51.432;6.880;2023-02-23T14:44:25;26.00;36.40
12060;DHT22;6091;51.432;6.880;2023-02-23T14:47:03;26.00;36.30
12060;DHT22;6091;51.432;6.880;2023-02-23T14:49:48;26.10;36.30
12060;DHT22;6091;51.432;6.880;2023-02-23T14:52:21;26.00;36.10
12060;DHT22;6091;51.432;6.880;2023-02-23T14:55:20;26.10;36.20
12060;DHT22;6091;51.432;6.880;2023-02-23T14:57:49;26.10;36.10
12060;DHT22;6091;51.432;6.880;2023-02-23T15:00:21;26.00;36.20
12060;DHT22;6091;51.432;6.880;2023-02-23T15:03:00;26.00;36.10
12060;DHT22;6091;51.432;6.880;2023-02-23T15:05:55;26.00;36.10
12060;DHT22;6091;51.432;6.880;2023-02-23T15:08:27;26.00;36.10
12060;DHT22;6091;51.432;6.880;2023-02-23T15:11:10;26.00;36.10
12060;DHT22;6091;51.432;6.880;2023-02-23T15:13:41;26.00;36.10
12060;DHT22;6091;51.432;6.880;2023-02-23T15:16:16;26.00;36.10
12060;DHT22;6091;51.432;6.880;2023-02-23T15:18:52;26.00;36.20
12060;DHT22;6091;51.432;6.880;2023-02-23T15:21:22;26.00;36.20
12060;DHT22;6091;51.432;6.880;2023-02-23T15:23:56;26.00;36.20
12060;DHT22;6091;51.432;6.880;2023-02-23T15:26:36;26.00;36.20
12060;DHT22;6091;51.432;6.880;2023-02-23T15:29:15;26.00;36.20
12060;DHT22;6091;51.432;6.880;2023-02-23T15:31:49;26.00;36.10
12060;DHT22;6091;51.432;6.880;2023-02-23T15:34:23;26.00;36.10
12060;DHT22;6091;51.432;6.880;2023-02-23T15:36:54;26.00;36.10
12060;DHT22;6091;51.432;6.880;2023-02-23T15:39:52;26.00;36.10
12060;DHT22;6091;51.432;6.880;2023-02-23T15:42:39;26.00;36.10
12060;DHT22;6091;51.432;6.880;2023-02-23T15:45:18;26.00;36.00
12060;DHT22;6091;51.432;6.880;2023-02-23T15:47:51;26.00;36.10
12060;DHT22;6091;51.432;6.880;2023-02-23T15:50:27;26.00;36.10
12060;DHT22;6091;51.432;6.880;2023-02-23T15:55:54;26.00;36.00
12060;DHT22;6091;51.432;6.880;2023-02-23T15:58:29;26.00;36.00
12060;DHT22;6091;51.432;6.880;2023-02-23T16:01:06;26.00;36.00
12060;DHT22;6091;51.432;6.880;2023-02-23T16:03:37;26.00;36.00
12060;DHT22;6091;51.432;6.880;2023-02-23T16:15:00;25.90;36.10
12060;DHT22;6091;51.432;6.880;2023-02-23T16:26:08;25.90;36.20
12060;DHT22;6091;51.432;6.880;2023-02-23T16:28:42;25.90;36.30
12060;DHT22;6091;51.432;6.880;2023-02-23T16:31:12;25.90;36.30
12060;DHT22;6091;51.432;6.880;2023-02-23T16:33:53;25.80;36.30
12060;DHT22;6091;51.432;6.880;2023-02-23T16:36:31;25.90;36.40
12060;DHT22;6091;51.432;6.880;2023-02-23T16:39:03;25.90;36.40
12060;DHT22;6091;51.432;6.880;2023-02-23T16:41:35;25.80;36.30
12060;DHT22;6091;51.432;6.880;2023-02-23T16:44:04;25.80;36.30
12060;DHT22;6091;51.432;6.880;2023-02-23T16:49:21;25.80;36.70
12060;DHT22;6091;51.432;6.880;2023-02-23T16:51:49;25.80;36.60
12060;DHT22;6091;51.432;6.880;2023-02-23T16:54:17;25.80;36.60
12060;DHT22;6091;51.432;6.880;2023-02-23T16:56:45;25.80;36.50
12060;DHT22;6091;51.432;6.880;2023-02-23T16:59:16;25.80;36.60
12060;DHT22;6091;51.432;6.880;2023-02-23T17:01:44;25.80;36.50
12060;DHT22;6091;51.432;6.880;2023-02-23T17:04:13;25.90;36.60
12060;DHT22;6091;51.432;6.880;2023-02-23T17:06:41;25.90;36.70
12060;DHT22;6091;51.432;6.880;2023-02-23T17:09:10;25.80;37.30
12060;DHT22;6091;51.432;6.880;2023-02-23T17:11:39;25.80;37.10
12060;DHT22;6091;51.432;6.880;2023-02-23T17:14:11;25.80;37.00
12060;DHT22;6091;51.432;6.880;2023-02-23T17:16:49;25.80;36.80
12060;DHT22;6091;51.432;6.880;2023-02-23T17:19:17;25.90;36.80
12060;DHT22;6091;51.432;6.880;2023-02-23T17:21:46;25.90;36.70
12060;DHT22;6091;51.432;6.880;2023-02-23T17:24:14;25.90;36.60
12060;DHT22;6091;51.432;6.880;2023-02-23T17:26:41;25.90;36.60
12060;DHT22;6091;51.432;6.880;2023-02-23T17:29:08;25.80;36.50
12060;DHT22;6091;51.432;6.880;2023-02-23T17:31:35;25.80;36.50
12060;DHT22;6091;51.432;6.880;2023-02-23T17:34:04;25.80;36.40
12060;DHT22;6091;51.432;6.880;2023-02-23T17:36:31;25.80;36.50
12060;DHT22;6091;51.432;6.880;2023-02-23T17:38:59;25.80;36.40
12060;DHT22;6091;51.432;6.880;2023-02-23T17:41:26;25.70;36.40
12060;DHT22;6091;51.432;6.880;2023-02-23T17:43:53;25.70;36.40
12060;DHT22;6091;51.432;6.880;2023-02-23T17:46:20;25.70;36.40
12060;DHT22;6091;51.432;6.880;2023-02-23T17:48:49;25.60;36.30
12060;DHT22;6091;51.432;6.880;2023-02-23T17:51:16;25.60;36.30
12060;DHT22;6091;51.432;6.880;2023-02-23T17:53:46;25.60;36.30
12060;DHT22;6091;51.432;6.880;2023-02-23T17:56:13;25.50;36.90
12060;DHT22;6091;51.432;6.880;2023-02-23T17:58:42;25.50;36.30
12060;DHT22;6091;51.432;6.880;2023-02-23T18:01:09;25.40;36.30
12060;DHT22;6091;51.432;6.880;2023-02-23T18:03:36;25.40;36.30
12060;DHT22;6091;51.432;6.880;2023-02-23T18:06:09;25.40;36.90
12060;DHT22;6091;51.432;6.880;2023-02-23T18:08:39;25.30;36.40
12060;DHT22;6091;51.432;6.880;2023-02-23T18:11:08;25.30;36.40
12060;DHT22;6091;51.432;6.880;2023-02-23T18:13:35;25.20;36.30
12060;DHT22;6091;51.432;6.880;2023-02-23T18:16:08;25.10;36.30
12060;DHT22;6091;51.432;6.880;2023-02-23T18:18:41;25.10;36.40
12060;DHT22;6091;51.432;6.880;2023-02-23T18:21:14;25.10;36.50
12060;DHT22;6091;51.432;6.880;2023-02-23T18:23:44;25.10;36.40
12060;DHT22;6091;51.432;6.880;2023-02-23T18:26:14;25.00;36.40
12060;DHT22;6091;51.432;6.880;2023-02-23T18:28:46;24.90;36.40
12060;DHT22;6091;51.432;6.880;2023-02-23T18:31:15;24.90;36.40
12060;DHT22;6091;51.432;6.880;2023-02-23T18:33:46;24.90;36.40
12060;DHT22;6091;51.432;6.880;2023-02-23T18:36:24;24.80;36.40
12060;DHT22;6091;51.432;6.880;2023-02-23T18:38:57;24.80;36.40
12060;DHT22;6091;51.432;6.880;2023-02-23T18:41:25;24.80;36.50
12060;DHT22;6091;51.432;6.880;2023-02-23T18:44:01;24.70;36.40